Aviation Digital Data Service (ADDS)

Output produced by METARs form (0246 UTC 22 April 2019)
found at http://www.aviationweather.gov/metar/data/
 
Forecast for: VLLB (LUANG-PRABANG , LA)
Text: TAF VLLB 211700Z 2118/2218 06004KT 5000 FU SCT020 SCT060
Forecast period: 1800 UTC 21 April 2019 to 1800 UTC 22 April 2019
Forecast type: FROM: standard forecast or significant change
Winds: from the ENE (60 degrees) at 5 MPH (4 knots; 2.1 m/s)
Visibility: 3 miles (5 km)
Ceiling: at least 12,000 feet AGL
Clouds: scattered clouds at 2000 feet AGL
scattered clouds at 6000 feet AGL
Weather: FU  (smoke)